ARG1736 SAEZ-SARE
Flight info
| Callsign | ARG1736 |
|---|---|
| Flight time | 1h 15m |
| Altitude | 37000 |
| Route | LANDA3A LANDA DCT GUA UL793 KILIP KILIP2U |
| Aircraft | E190/M-SDE3GILORVW/S |
Departure
| Time | 2026-04-15 21:07 |
|---|---|
| Airport | Ezeiza International Airport - Ministro Pistarini (SAEZ) |
Arrival
| Time | 2026-04-15 22:22 |
|---|---|
| Airport | Resistencia International Airport (SARE) |
| Time | Latitude | Longitude | Altitude | Speed | Heading |
|---|---|---|---|---|---|
| 2026-04-15 20:37 | -34.81653 | -58.54048 | 74 ft | 0 kts | 316° |
| 2026-04-15 20:55 | -34.81662 | -58.54037 | 62 ft | 4 kts | 315° |
| 2026-04-15 20:55 | -34.81681 | -58.54013 | 66 ft | 4 kts | 314° |
| 2026-04-15 20:56 | -34.81700 | -58.53990 | 65 ft | 4 kts | 313° |
| 2026-04-15 20:56 | -34.81718 | -58.53966 | 65 ft | 4 kts | 304° |
| 2026-04-15 20:56 | -34.81730 | -58.53937 | 69 ft | 4 kts | 284° |
| 2026-04-15 20:56 | -34.81731 | -58.53909 | 69 ft | 2 kts | 240° |
| 2026-04-15 20:57 | -34.81728 | -58.53903 | 71 ft | 0 kts | 240° |
| 2026-04-15 20:59 | -34.81735 | -58.53918 | 69 ft | 3 kts | 240° |
| 2026-04-15 20:59 | -34.81752 | -58.53955 | 71 ft | 7 kts | 241° |
| 2026-04-15 20:59 | -34.81783 | -58.54030 | 70 ft | 12 kts | 251° |
| 2026-04-15 20:59 | -34.81790 | -58.54129 | 67 ft | 12 kts | 277° |
| 2026-04-15 21:00 | -34.81778 | -58.54229 | 68 ft | 12 kts | 276° |
| 2026-04-15 21:00 | -34.81769 | -58.54328 | 68 ft | 12 kts | 277° |
| 2026-04-15 21:00 | -34.81763 | -58.54381 | 65 ft | 0 kts | 277° |
| 2026-04-15 21:02 | -34.81762 | -58.54391 | 70 ft | 3 kts | 277° |
| 2026-04-15 21:02 | -34.81757 | -58.54435 | 74 ft | 8 kts | 277° |
| 2026-04-15 21:02 | -34.81751 | -58.54519 | 67 ft | 12 kts | 268° |
| 2026-04-15 21:03 | -34.81769 | -58.54628 | 71 ft | 13 kts | 254° |
| 2026-04-15 21:03 | -34.81780 | -58.54738 | 71 ft | 13 kts | 274° |
| 2026-04-15 21:03 | -34.81764 | -58.54845 | 64 ft | 13 kts | 282° |
| 2026-04-15 21:03 | -34.81746 | -58.54949 | 72 ft | 13 kts | 282° |
| 2026-04-15 21:04 | -34.81728 | -58.55051 | 74 ft | 12 kts | 282° |
| 2026-04-15 21:04 | -34.81710 | -58.55151 | 74 ft | 12 kts | 282° |
| 2026-04-15 21:04 | -34.81697 | -58.55249 | 70 ft | 12 kts | 268° |
| 2026-04-15 21:04 | -34.81734 | -58.55326 | 73 ft | 10 kts | 212° |
| 2026-04-15 21:05 | -34.81800 | -58.55335 | 70 ft | 9 kts | 167° |
| 2026-04-15 21:05 | -34.81850 | -58.55313 | 76 ft | 7 kts | 172° |
| 2026-04-15 21:05 | -34.81889 | -58.55319 | 76 ft | 5 kts | 191° |
| 2026-04-15 21:05 | -34.81912 | -58.55308 | 77 ft | 3 kts | 115° |
| 2026-04-15 21:06 | -34.81919 | -58.55260 | 77 ft | 13 kts | 103° |
| 2026-04-15 21:06 | -34.81966 | -58.55002 | 70 ft | 63 kts | 102° |
| 2026-04-15 21:06 | -34.82113 | -58.54184 | 82 ft | 133 kts | 103° |
| 2026-04-15 21:06 | -34.82343 | -58.52852 | 229 ft | 185 kts | 101° |
| 2026-04-15 21:07 | -34.82509 | -58.51761 | 585 ft | 208 kts | 100° |
| 2026-04-15 21:07 | -34.82726 | -58.49943 | 1464 ft | 222 kts | 99° |
| 2026-04-15 21:07 | -34.83315 | -58.48250 | 2402 ft | 223 kts | 131° |
| 2026-04-15 21:07 | -34.84470 | -58.46251 | 3646 ft | 225 kts | 105° |
| 2026-04-15 21:08 | -34.84341 | -58.44310 | 4383 ft | 250 kts | 70° |
| 2026-04-15 21:08 | -34.83661 | -58.43117 | 4818 ft | 265 kts | 41° |
| 2026-04-15 21:08 | -34.81967 | -58.42222 | 6019 ft | 274 kts | 12° |
| 2026-04-15 21:08 | -34.80045 | -58.42291 | 7161 ft | 279 kts | 356° |
| 2026-04-15 21:09 | -34.78132 | -58.42635 | 8290 ft | 277 kts | 356° |
| 2026-04-15 21:09 | -34.76220 | -58.42920 | 9408 ft | 277 kts | 358° |
| 2026-04-15 21:09 | -34.74290 | -58.43164 | 10343 ft | 285 kts | 358° |
| 2026-04-15 21:09 | -34.72236 | -58.43410 | 10863 ft | 305 kts | 357° |
| 2026-04-15 21:10 | -34.70078 | -58.43706 | 11532 ft | 319 kts | 356° |
| 2026-04-15 21:10 | -34.67827 | -58.44041 | 12148 ft | 333 kts | 355° |
| 2026-04-15 21:10 | -34.65487 | -58.44412 | 12930 ft | 343 kts | 354° |
| 2026-04-15 21:10 | -34.63102 | -58.44813 | 13857 ft | 348 kts | 354° |
| 2026-04-15 21:11 | -34.60684 | -58.45217 | 14780 ft | 352 kts | 354° |
| 2026-04-15 21:11 | -34.58247 | -58.45623 | 15782 ft | 355 kts | 353° |
| 2026-04-15 21:11 | -34.55781 | -58.46037 | 16765 ft | 359 kts | 353° |
| 2026-04-15 21:11 | -34.53299 | -58.46464 | 17713 ft | 362 kts | 353° |
| 2026-04-15 21:12 | -34.50792 | -58.46916 | 18538 ft | 365 kts | 352° |
| 2026-04-15 21:12 | -34.48263 | -58.47393 | 19233 ft | 370 kts | 352° |
| 2026-04-15 21:12 | -34.45709 | -58.47900 | 19916 ft | 374 kts | 351° |
| 2026-04-15 21:12 | -34.43124 | -58.48443 | 20587 ft | 378 kts | 350° |
| 2026-04-15 21:13 | -34.40554 | -58.49010 | 21236 ft | 383 kts | 350° |
| 2026-04-15 21:13 | -34.37922 | -58.49608 | 21889 ft | 387 kts | 349° |
| 2026-04-15 21:13 | -34.35267 | -58.50234 | 22524 ft | 391 kts | 349° |
| 2026-04-15 21:13 | -34.32585 | -58.50890 | 23146 ft | 395 kts | 348° |
| 2026-04-15 21:14 | -34.29885 | -58.51575 | 23714 ft | 398 kts | 348° |
| 2026-04-15 21:14 | -34.27167 | -58.52285 | 24212 ft | 400 kts | 348° |
| 2026-04-15 21:14 | -34.24437 | -58.53016 | 24690 ft | 403 kts | 347° |
| 2026-04-15 21:14 | -34.21688 | -58.53772 | 25156 ft | 406 kts | 347° |
| 2026-04-15 21:15 | -34.18929 | -58.54555 | 25615 ft | 408 kts | 347° |
| 2026-04-15 21:15 | -34.16157 | -58.55364 | 26052 ft | 411 kts | 347° |
| 2026-04-15 21:15 | -34.13361 | -58.56199 | 26483 ft | 414 kts | 346° |
| 2026-04-15 21:15 | -34.10532 | -58.56730 | 27215 ft | 407 kts | 356° |
| 2026-04-15 21:16 | -34.07761 | -58.56862 | 27957 ft | 401 kts | 358° |
| 2026-04-15 21:16 | -34.04972 | -58.56975 | 28471 ft | 402 kts | 358° |
| 2026-04-15 21:16 | -34.02166 | -58.57085 | 28882 ft | 404 kts | 358° |
| 2026-04-15 21:16 | -33.99353 | -58.57197 | 29349 ft | 405 kts | 358° |
| 2026-04-15 21:17 | -33.96514 | -58.57307 | 29656 ft | 409 kts | 358° |
| 2026-04-15 21:17 | -33.93663 | -58.57417 | 30042 ft | 410 kts | 358° |
| 2026-04-15 21:17 | -33.90790 | -58.57528 | 30227 ft | 415 kts | 358° |
| 2026-04-15 21:17 | -33.87893 | -58.57649 | 30545 ft | 416 kts | 358° |
| 2026-04-15 21:18 | -33.85020 | -58.57776 | 30729 ft | 421 kts | 358° |
| 2026-04-15 21:18 | -33.82085 | -58.57906 | 31029 ft | 422 kts | 358° |
| 2026-04-15 21:18 | -33.79148 | -58.58034 | 31380 ft | 423 kts | 358° |
| 2026-04-15 21:18 | -33.76181 | -58.58164 | 31546 ft | 428 kts | 358° |
| 2026-04-15 21:19 | -33.73204 | -58.58294 | 31888 ft | 428 kts | 358° |
| 2026-04-15 21:19 | -33.70225 | -58.58425 | 32264 ft | 428 kts | 358° |
| 2026-04-15 21:19 | -33.67246 | -58.58554 | 32664 ft | 428 kts | 359° |
| 2026-04-15 21:19 | -33.64273 | -58.58683 | 33034 ft | 427 kts | 359° |
| 2026-04-15 21:20 | -33.61301 | -58.58812 | 33408 ft | 427 kts | 359° |
| 2026-04-15 21:20 | -33.58326 | -58.58941 | 33730 ft | 428 kts | 359° |
| 2026-04-15 21:20 | -33.55350 | -58.59069 | 34019 ft | 429 kts | 359° |
| 2026-04-15 21:20 | -33.52368 | -58.59201 | 34348 ft | 427 kts | 359° |
| 2026-04-15 21:21 | -33.49398 | -58.59330 | 34673 ft | 426 kts | 359° |
| 2026-04-15 21:21 | -33.46442 | -58.59458 | 34984 ft | 424 kts | 359° |
| 2026-04-15 21:21 | -33.43541 | -58.59585 | 35300 ft | 422 kts | 359° |
| 2026-04-15 21:21 | -33.40611 | -58.59713 | 35601 ft | 421 kts | 359° |
| 2026-04-15 21:22 | -33.37679 | -58.59838 | 35861 ft | 421 kts | 359° |
| 2026-04-15 21:22 | -33.34754 | -58.59963 | 36155 ft | 420 kts | 359° |
| 2026-04-15 21:22 | -33.31837 | -58.60088 | 36447 ft | 418 kts | 359° |
| 2026-04-15 21:22 | -33.28926 | -58.60215 | 36714 ft | 418 kts | 359° |
| 2026-04-15 21:23 | -33.26029 | -58.60342 | 37049 ft | 416 kts | 359° |
| 2026-04-15 21:23 | -33.20207 | -58.60591 | 37053 ft | 419 kts | 359° |
| 2026-04-15 21:24 | -33.14361 | -58.60842 | 37000 ft | 421 kts | 359° |
| 2026-04-15 21:24 | -33.08506 | -58.61094 | 36912 ft | 421 kts | 359° |
| 2026-04-15 21:25 | -33.02652 | -58.61343 | 36909 ft | 421 kts | 359° |
| 2026-04-15 21:25 | -32.96794 | -58.61727 | 36910 ft | 422 kts | 357° |
| 2026-04-15 21:26 | -32.90964 | -58.62231 | 36910 ft | 423 kts | 357° |
| 2026-04-15 21:26 | -32.85078 | -58.62724 | 36915 ft | 424 kts | 357° |
| 2026-04-15 21:27 | -32.79187 | -58.63218 | 36903 ft | 425 kts | 357° |
| 2026-04-15 21:27 | -32.73278 | -58.63708 | 36918 ft | 426 kts | 356° |
| 2026-04-15 21:28 | -32.67361 | -58.64196 | 36896 ft | 426 kts | 356° |
| 2026-04-15 21:28 | -32.61434 | -58.64685 | 36900 ft | 427 kts | 356° |
| 2026-04-15 21:29 | -32.55530 | -58.65170 | 36872 ft | 428 kts | 356° |
| 2026-04-15 21:29 | -32.49550 | -58.65660 | 36880 ft | 428 kts | 355° |
| 2026-04-15 21:30 | -32.43659 | -58.66143 | 36886 ft | 427 kts | 355° |
| 2026-04-15 21:30 | -32.37683 | -58.66634 | 36886 ft | 428 kts | 355° |
| 2026-04-15 21:31 | -32.28806 | -58.67362 | 36866 ft | 429 kts | 355° |
| 2026-04-15 21:32 | -32.19867 | -58.68094 | 36868 ft | 429 kts | 354° |
| 2026-04-15 21:32 | -32.13894 | -58.68582 | 36868 ft | 430 kts | 354° |
| 2026-04-15 21:33 | -32.07924 | -58.69070 | 36862 ft | 430 kts | 354° |
| 2026-04-15 21:33 | -32.01958 | -58.69557 | 36859 ft | 430 kts | 354° |
| 2026-04-15 21:34 | -31.95981 | -58.70044 | 36856 ft | 430 kts | 354° |
| 2026-04-15 21:34 | -31.90034 | -58.70529 | 36861 ft | 431 kts | 353° |
| 2026-04-15 21:35 | -31.84058 | -58.71015 | 36838 ft | 431 kts | 353° |
| 2026-04-15 21:35 | -31.78070 | -58.71500 | 36844 ft | 431 kts | 353° |
| 2026-04-15 21:36 | -31.72081 | -58.71985 | 36837 ft | 431 kts | 353° |
| 2026-04-15 21:36 | -31.66093 | -58.72469 | 36836 ft | 431 kts | 353° |
| 2026-04-15 21:37 | -31.60110 | -58.72952 | 36832 ft | 431 kts | 353° |
| 2026-04-15 21:37 | -31.54130 | -58.73435 | 36830 ft | 430 kts | 353° |
| 2026-04-15 21:38 | -31.48158 | -58.73916 | 36827 ft | 430 kts | 353° |
| 2026-04-15 21:38 | -31.42182 | -58.74396 | 36823 ft | 430 kts | 353° |
| 2026-04-15 21:39 | -31.36207 | -58.74877 | 36818 ft | 430 kts | 353° |
| 2026-04-15 21:39 | -31.30234 | -58.75357 | 36812 ft | 430 kts | 352° |
| 2026-04-15 21:40 | -31.24268 | -58.75836 | 36810 ft | 429 kts | 352° |
| 2026-04-15 21:40 | -31.18328 | -58.76312 | 36721 ft | 431 kts | 352° |
| 2026-04-15 21:41 | -31.12353 | -58.76789 | 36755 ft | 430 kts | 352° |
| 2026-04-15 21:41 | -31.06407 | -58.77263 | 36737 ft | 426 kts | 352° |
| 2026-04-15 21:42 | -31.00475 | -58.77737 | 36744 ft | 427 kts | 352° |
| 2026-04-15 21:42 | -30.94523 | -58.78212 | 36704 ft | 429 kts | 352° |
| 2026-04-15 21:43 | -30.88577 | -58.78711 | 36732 ft | 428 kts | 352° |
| 2026-04-15 21:43 | -30.82670 | -58.79222 | 36745 ft | 428 kts | 352° |
| 2026-04-15 21:44 | -30.76718 | -58.79734 | 36711 ft | 428 kts | 352° |
| 2026-04-15 21:44 | -30.70780 | -58.80243 | 36708 ft | 428 kts | 352° |
| 2026-04-15 21:45 | -30.64843 | -58.80752 | 36715 ft | 428 kts | 352° |
| 2026-04-15 21:45 | -30.58909 | -58.81259 | 36709 ft | 427 kts | 353° |
| 2026-04-15 21:46 | -30.52983 | -58.81767 | 36720 ft | 427 kts | 353° |
| 2026-04-15 21:46 | -30.47063 | -58.82263 | 36712 ft | 427 kts | 353° |
| 2026-04-15 21:47 | -30.41133 | -58.82730 | 36708 ft | 427 kts | 353° |
| 2026-04-15 21:47 | -30.35202 | -58.83199 | 36706 ft | 427 kts | 353° |
| 2026-04-15 21:48 | -30.29273 | -58.83668 | 36706 ft | 427 kts | 353° |
| 2026-04-15 21:48 | -30.23393 | -58.84133 | 36703 ft | 426 kts | 353° |
| 2026-04-15 21:49 | -30.17475 | -58.84600 | 36705 ft | 426 kts | 353° |
| 2026-04-15 21:49 | -30.11552 | -58.85067 | 36702 ft | 426 kts | 353° |
| 2026-04-15 21:50 | -30.05638 | -58.85533 | 36704 ft | 426 kts | 353° |
| 2026-04-15 21:50 | -29.99728 | -58.85999 | 36703 ft | 425 kts | 353° |
| 2026-04-15 21:51 | -29.93815 | -58.86463 | 36706 ft | 425 kts | 353° |
| 2026-04-15 21:51 | -29.87915 | -58.86927 | 36712 ft | 425 kts | 353° |
| 2026-04-15 21:52 | -29.82009 | -58.87390 | 36710 ft | 425 kts | 353° |
| 2026-04-15 21:52 | -29.76152 | -58.87849 | 36710 ft | 424 kts | 353° |
| 2026-04-15 21:53 | -29.70261 | -58.88310 | 36716 ft | 424 kts | 353° |
| 2026-04-15 21:53 | -29.64374 | -58.88773 | 36718 ft | 425 kts | 353° |
| 2026-04-15 21:54 | -29.58490 | -58.89237 | 36719 ft | 423 kts | 353° |
| 2026-04-15 21:54 | -29.52608 | -58.89702 | 36718 ft | 423 kts | 353° |
| 2026-04-15 21:55 | -29.46731 | -58.90165 | 36728 ft | 423 kts | 353° |
| 2026-04-15 21:55 | -29.41812 | -58.90553 | 36736 ft | 423 kts | 353° |
| 2026-04-15 21:56 | -29.35972 | -58.91012 | 36732 ft | 423 kts | 353° |
| 2026-04-15 21:56 | -29.30091 | -58.91474 | 36744 ft | 423 kts | 353° |
| 2026-04-15 21:57 | -29.24213 | -58.91935 | 36726 ft | 423 kts | 353° |
| 2026-04-15 21:57 | -29.18340 | -58.92396 | 36749 ft | 423 kts | 353° |
| 2026-04-15 21:58 | -29.12465 | -58.92855 | 36758 ft | 423 kts | 353° |
| 2026-04-15 21:58 | -29.06590 | -58.93315 | 36756 ft | 423 kts | 353° |
| 2026-04-15 21:59 | -29.00751 | -58.93771 | 36406 ft | 427 kts | 353° |
| 2026-04-15 21:59 | -28.97793 | -58.94002 | 36205 ft | 424 kts | 353° |
| 2026-04-15 21:59 | -28.94827 | -58.94234 | 35613 ft | 430 kts | 353° |
| 2026-04-15 21:59 | -28.91836 | -58.94466 | 35060 ft | 431 kts | 353° |
| 2026-04-15 22:00 | -28.88834 | -58.94701 | 34451 ft | 432 kts | 352° |
| 2026-04-15 22:00 | -28.85832 | -58.94934 | 33893 ft | 433 kts | 352° |
| 2026-04-15 22:00 | -28.82822 | -58.95168 | 33272 ft | 434 kts | 352° |
| 2026-04-15 22:00 | -28.79813 | -58.95401 | 32735 ft | 434 kts | 352° |
| 2026-04-15 22:01 | -28.76794 | -58.95634 | 32157 ft | 435 kts | 352° |
| 2026-04-15 22:01 | -28.73771 | -58.95868 | 31568 ft | 436 kts | 352° |
| 2026-04-15 22:01 | -28.70736 | -58.96103 | 30997 ft | 437 kts | 352° |
| 2026-04-15 22:01 | -28.67701 | -58.96337 | 30420 ft | 438 kts | 352° |
| 2026-04-15 22:02 | -28.64655 | -58.96572 | 29822 ft | 438 kts | 352° |
| 2026-04-15 22:02 | -28.61612 | -58.96807 | 29245 ft | 438 kts | 352° |
| 2026-04-15 22:02 | -28.58610 | -58.97039 | 28659 ft | 438 kts | 352° |
| 2026-04-15 22:02 | -28.55579 | -58.97272 | 28101 ft | 436 kts | 352° |
| 2026-04-15 22:03 | -28.52562 | -58.97504 | 27520 ft | 433 kts | 352° |
| 2026-04-15 22:03 | -28.49571 | -58.97734 | 26950 ft | 430 kts | 352° |
| 2026-04-15 22:03 | -28.46595 | -58.97963 | 26379 ft | 426 kts | 352° |
| 2026-04-15 22:03 | -28.43652 | -58.98189 | 25820 ft | 423 kts | 352° |
| 2026-04-15 22:04 | -28.40729 | -58.98413 | 25261 ft | 419 kts | 352° |
| 2026-04-15 22:04 | -28.37826 | -58.98637 | 24700 ft | 415 kts | 352° |
| 2026-04-15 22:04 | -28.34950 | -58.98659 | 24170 ft | 413 kts | 358° |
| 2026-04-15 22:04 | -28.32089 | -58.98421 | 23602 ft | 411 kts | 359° |
| 2026-04-15 22:05 | -28.29241 | -58.98182 | 23016 ft | 408 kts | 359° |
| 2026-04-15 22:05 | -28.26434 | -58.97946 | 22524 ft | 403 kts | 359° |
| 2026-04-15 22:05 | -28.23639 | -58.97716 | 21984 ft | 401 kts | 359° |
| 2026-04-15 22:05 | -28.20867 | -58.97487 | 21459 ft | 399 kts | 359° |
| 2026-04-15 22:06 | -28.18106 | -58.97262 | 20938 ft | 396 kts | 359° |
| 2026-04-15 22:06 | -28.15365 | -58.97037 | 20393 ft | 394 kts | 359° |
| 2026-04-15 22:06 | -28.12636 | -58.96816 | 19882 ft | 391 kts | 359° |
| 2026-04-15 22:06 | -28.09930 | -58.96595 | 19371 ft | 389 kts | 359° |
| 2026-04-15 22:07 | -28.07239 | -58.96378 | 18858 ft | 386 kts | 360° |
| 2026-04-15 22:07 | -28.04567 | -58.96161 | 18338 ft | 384 kts | 360° |
| 2026-04-15 22:07 | -28.01940 | -58.95950 | 17809 ft | 381 kts | 360° |
| 2026-04-15 22:07 | -27.99310 | -58.95737 | 17329 ft | 375 kts | 360° |
| 2026-04-15 22:08 | -27.96716 | -58.95528 | 16840 ft | 372 kts | 0° |
| 2026-04-15 22:08 | -27.94150 | -58.95322 | 16347 ft | 368 kts | 0° |
| 2026-04-15 22:08 | -27.91608 | -58.95118 | 15862 ft | 364 kts | 0° |
| 2026-04-15 22:08 | -27.89089 | -58.94917 | 15381 ft | 361 kts | 0° |
| 2026-04-15 22:09 | -27.86594 | -58.94716 | 14897 ft | 357 kts | 0° |
| 2026-04-15 22:09 | -27.84129 | -58.94518 | 14432 ft | 352 kts | 1° |
| 2026-04-15 22:09 | -27.81714 | -58.94323 | 13966 ft | 344 kts | 1° |
| 2026-04-15 22:09 | -27.79357 | -58.94135 | 13482 ft | 337 kts | 1° |
| 2026-04-15 22:10 | -27.77047 | -58.93946 | 13041 ft | 328 kts | 1° |
| 2026-04-15 22:10 | -27.74831 | -58.93768 | 12623 ft | 320 kts | 1° |
| 2026-04-15 22:10 | -27.72634 | -58.93591 | 12213 ft | 313 kts | 1° |
| 2026-04-15 22:10 | -27.70482 | -58.93418 | 11806 ft | 307 kts | 1° |
| 2026-04-15 22:11 | -27.68365 | -58.93247 | 11398 ft | 302 kts | 0° |
| 2026-04-15 22:11 | -27.66285 | -58.93082 | 10998 ft | 298 kts | 1° |
| 2026-04-15 22:11 | -27.64229 | -58.92917 | 10604 ft | 294 kts | 1° |
| 2026-04-15 22:11 | -27.62201 | -58.92755 | 10222 ft | 291 kts | 1° |
| 2026-04-15 22:12 | -27.60186 | -58.92593 | 9846 ft | 289 kts | 1° |
| 2026-04-15 22:12 | -27.58186 | -58.92434 | 9442 ft | 287 kts | 1° |
| 2026-04-15 22:12 | -27.56207 | -58.92275 | 9090 ft | 284 kts | 1° |
| 2026-04-15 22:12 | -27.54239 | -58.92117 | 8719 ft | 283 kts | 1° |
| 2026-04-15 22:13 | -27.52275 | -58.91961 | 8336 ft | 283 kts | 1° |
| 2026-04-15 22:13 | -27.50316 | -58.91804 | 7928 ft | 278 kts | 1° |
| 2026-04-15 22:13 | -27.48435 | -58.91637 | 7486 ft | 272 kts | 5° |
| 2026-04-15 22:13 | -27.46609 | -58.91192 | 7078 ft | 266 kts | 11° |
| 2026-04-15 22:14 | -27.44824 | -58.90703 | 6606 ft | 261 kts | 10° |
| 2026-04-15 22:14 | -27.43067 | -58.90245 | 6161 ft | 257 kts | 10° |
| 2026-04-15 22:14 | -27.41335 | -58.89801 | 5697 ft | 253 kts | 10° |
| 2026-04-15 22:14 | -27.39635 | -58.89374 | 5281 ft | 248 kts | 10° |
| 2026-04-15 22:15 | -27.37961 | -58.88955 | 4857 ft | 245 kts | 10° |
| 2026-04-15 22:15 | -27.36306 | -58.88543 | 4447 ft | 244 kts | 10° |
| 2026-04-15 22:15 | -27.34647 | -58.88132 | 4077 ft | 242 kts | 9° |
| 2026-04-15 22:15 | -27.33034 | -58.87752 | 3702 ft | 233 kts | 5° |
| 2026-04-15 22:16 | -27.31502 | -58.88041 | 3295 ft | 220 kts | 329° |
| 2026-04-15 22:16 | -27.30570 | -58.89281 | 3061 ft | 206 kts | 289° |
| 2026-04-15 22:16 | -27.30293 | -58.90812 | 2839 ft | 196 kts | 282° |
| 2026-04-15 22:16 | -27.29967 | -58.92261 | 2646 ft | 183 kts | 286° |
| 2026-04-15 22:17 | -27.29621 | -58.93584 | 2418 ft | 171 kts | 287° |
| 2026-04-15 22:17 | -27.29270 | -58.94836 | 2157 ft | 164 kts | 288° |
| 2026-04-15 22:17 | -27.28925 | -58.95996 | 2022 ft | 148 kts | 289° |
| 2026-04-15 22:17 | -27.28596 | -58.97069 | 2048 ft | 141 kts | 288° |
| 2026-04-15 22:18 | -27.28698 | -58.98189 | 1762 ft | 157 kts | 233° |
| 2026-04-15 22:18 | -27.29621 | -58.98781 | 1634 ft | 151 kts | 204° |
| 2026-04-15 22:18 | -27.30508 | -58.99394 | 1613 ft | 152 kts | 221° |
| 2026-04-15 22:18 | -27.31498 | -58.99878 | 1563 ft | 156 kts | 197° |
| 2026-04-15 22:19 | -27.32534 | -59.00209 | 1530 ft | 154 kts | 205° |
| 2026-04-15 22:19 | -27.33507 | -59.00680 | 1523 ft | 153 kts | 207° |
| 2026-04-15 22:19 | -27.34510 | -59.01110 | 1523 ft | 156 kts | 203° |
| 2026-04-15 22:19 | -27.35540 | -59.01533 | 1534 ft | 153 kts | 205° |
| 2026-04-15 22:20 | -27.36475 | -59.01944 | 1521 ft | 136 kts | 205° |
| 2026-04-15 22:20 | -27.37352 | -59.02322 | 1472 ft | 134 kts | 204° |
| 2026-04-15 22:20 | -27.38214 | -59.02689 | 1322 ft | 131 kts | 204° |
| 2026-04-15 22:20 | -27.39077 | -59.03057 | 1168 ft | 134 kts | 205° |
| 2026-04-15 22:21 | -27.39949 | -59.03438 | 998 ft | 132 kts | 204° |
| 2026-04-15 22:21 | -27.40814 | -59.03805 | 813 ft | 131 kts | 204° |
| 2026-04-15 22:21 | -27.41648 | -59.04165 | 673 ft | 127 kts | 204° |
| 2026-04-15 22:21 | -27.42480 | -59.04525 | 487 ft | 129 kts | 204° |
| 2026-04-15 22:22 | -27.43300 | -59.04880 | 351 ft | 124 kts | 204° |
| 2026-04-15 22:22 | -27.44091 | -59.05217 | 211 ft | 116 kts | 204° |
| 2026-04-15 22:22 | -27.44746 | -59.05502 | 193 ft | 81 kts | 202° |
| 2026-04-15 22:22 | -27.45110 | -59.05656 | 198 ft | 33 kts | 201° |
| 2026-04-15 22:23 | -27.45258 | -59.05720 | 192 ft | 17 kts | 204° |
| 2026-04-15 22:23 | -27.45292 | -59.05740 | 190 ft | 1 kts | 137° |
| 2026-04-15 22:23 | -27.45291 | -59.05734 | 189 ft | 1 kts | 91° |
| 2026-04-15 22:23 | -27.45275 | -59.05720 | 186 ft | 5 kts | 26° |
| 2026-04-15 22:24 | -27.45226 | -59.05701 | 203 ft | 10 kts | 17° |
| 2026-04-15 22:24 | -27.45138 | -59.05669 | 193 ft | 17 kts | 18° |
| 2026-04-15 22:24 | -27.45014 | -59.05616 | 193 ft | 18 kts | 20° |
| 2026-04-15 22:24 | -27.44906 | -59.05570 | 195 ft | 15 kts | 22° |
| 2026-04-15 22:25 | -27.44824 | -59.05512 | 189 ft | 14 kts | 41° |
| 2026-04-15 22:25 | -27.44757 | -59.05420 | 190 ft | 15 kts | 56° |
| 2026-04-15 22:25 | -27.44704 | -59.05330 | 197 ft | 13 kts | 57° |
| 2026-04-15 22:25 | -27.44658 | -59.05248 | 196 ft | 12 kts | 57° |
| 2026-04-15 22:26 | -27.44614 | -59.05171 | 205 ft | 10 kts | 57° |
| 2026-04-15 22:26 | -27.44581 | -59.05105 | 202 ft | 8 kts | 62° |
| 2026-04-15 22:26 | -27.44577 | -59.05096 | 205 ft | 3 kts | 62° |
| 2026-04-15 22:26 | -27.44557 | -59.05054 | 198 ft | 7 kts | 62° |
| 2026-04-15 22:27 | -27.44554 | -59.05048 | 199 ft | 0 kts | 62° |
| 2026-04-15 22:27 | -27.44548 | -59.05034 | 205 ft | 5 kts | 62° |
| 2026-04-15 22:27 | -27.44524 | -59.04986 | 195 ft | 7 kts | 54° |
| 2026-04-15 22:27 | -27.44508 | -59.04967 | 199 ft | 1 kts | 52° |
| 2026-04-15 22:28 | -27.44507 | -59.04964 | 200 ft | 0 kts | 60° |
| 2026-04-15 22:28 | -27.44507 | -59.04961 | 201 ft | 0 kts | 77° |
| 2026-04-15 22:28 | -27.44509 | -59.04958 | 200 ft | 0 kts | 103° |
| 2026-04-15 22:28 | -27.44514 | -59.04954 | 206 ft | 0 kts | 136° |
| 2026-04-15 22:29 | -27.44519 | -59.04952 | 195 ft | 0 kts | 159° |
| 2026-04-15 22:29 | -27.44523 | -59.04951 | 195 ft | 0 kts | 163° |
| 2026-04-15 22:29 | -27.44525 | -59.04951 | 195 ft | 0 kts | 163° |